createdAt,value
2022-07-25T00:00:14.104Z,0.00
2022-07-25T00:01:13.760Z,0.00
2022-07-25T00:02:13.085Z,0.00
2022-07-25T00:03:14.439Z,0.00
2022-07-25T00:04:13.913Z,0.00
2022-07-25T00:05:14.223Z,0.00
2022-07-25T00:06:13.517Z,0.00
2022-07-25T00:07:13.119Z,0.00
2022-07-25T00:08:13.367Z,0.00
2022-07-25T00:09:13.278Z,0.00
2022-07-25T00:10:13.280Z,0.00
2022-07-25T00:11:13.261Z,0.00
2022-07-25T00:12:13.149Z,0.00
2022-07-25T00:13:13.092Z,0.00
2022-07-25T00:14:13.112Z,0.00
2022-07-25T00:15:13.083Z,0.00
2022-07-25T00:16:13.551Z,0.00
2022-07-25T00:17:13.504Z,0.00
2022-07-25T00:18:13.437Z,0.00
2022-07-25T00:19:14.504Z,0.00
2022-07-25T00:20:15.289Z,0.00
2022-07-25T00:21:14.843Z,0.00
2022-07-25T00:22:14.982Z,0.00
2022-07-25T00:23:15.129Z,0.00
2022-07-25T00:24:13.041Z,0.00
2022-07-25T00:25:14.628Z,0.00
2022-07-25T00:26:13.901Z,0.00
2022-07-25T00:27:12.707Z,0.00
2022-07-25T00:28:13.871Z,0.00
2022-07-25T00:29:13.702Z,0.00
2022-07-25T00:30:13.956Z,0.00
2022-07-25T00:31:12.934Z,0.00
2022-07-25T00:32:14.138Z,0.00
2022-07-25T00:33:13.048Z,0.00
2022-07-25T00:34:13.029Z,0.00
2022-07-25T00:35:13.027Z,0.00
2022-07-25T00:36:12.955Z,0.00
2022-07-25T00:37:12.928Z,0.00
2022-07-25T00:38:12.815Z,0.00
2022-07-25T00:39:13.967Z,0.00
2022-07-25T00:40:12.843Z,0.00
2022-07-25T00:41:13.735Z,0.00
2022-07-25T00:42:15.156Z,0.00
2022-07-25T00:43:13.090Z,0.00
2022-07-25T00:44:14.553Z,0.00
2022-07-25T00:45:13.422Z,0.00
2022-07-25T00:46:13.854Z,0.00
2022-07-25T00:47:12.862Z,0.00
2022-07-25T00:48:13.820Z,0.00
2022-07-25T00:49:13.688Z,0.00
2022-07-25T00:50:13.584Z,0.00
2022-07-25T00:51:13.622Z,0.00
2022-07-25T00:52:15.002Z,0.00
2022-07-25T00:53:12.982Z,0.00
2022-07-25T00:54:15.571Z,0.00
2022-07-25T00:55:15.082Z,0.00
2022-07-25T00:56:12.997Z,0.00
2022-07-25T00:57:13.285Z,0.00
2022-07-25T00:58:15.313Z,0.00
2022-07-25T00:59:13.302Z,0.00
2022-07-25T01:00:13.231Z,0.00
2022-07-25T01:01:13.393Z,0.00
2022-07-25T01:02:13.416Z,0.00
2022-07-25T01:03:13.617Z,0.00
2022-07-25T01:04:13.666Z,0.00
2022-07-25T01:05:13.521Z,0.00
2022-07-25T01:06:13.714Z,0.00
2022-07-25T01:07:14.146Z,0.00
2022-07-25T01:08:13.044Z,0.00
2022-07-25T01:09:12.933Z,0.00
2022-07-25T01:10:13.028Z,0.00
2022-07-25T01:11:12.943Z,0.00
2022-07-25T01:12:13.112Z,0.00
2022-07-25T01:13:13.128Z,0.00
2022-07-25T01:14:13.228Z,0.00
2022-07-25T01:15:13.210Z,0.00
2022-07-25T01:16:13.468Z,0.00
2022-07-25T01:17:13.716Z,0.00
2022-07-25T01:18:14.098Z,0.00
2022-07-25T01:19:12.919Z,0.00
2022-07-25T01:20:14.419Z,0.00
2022-07-25T01:21:13.424Z,0.00
2022-07-25T01:22:13.372Z,0.00
2022-07-25T01:23:14.753Z,0.00
2022-07-25T01:24:13.996Z,0.00
2022-07-25T01:25:12.839Z,0.00
2022-07-25T01:26:13.845Z,0.00
2022-07-25T01:27:17.505Z,0.00
2022-07-25T01:28:13.814Z,0.00
2022-07-25T01:29:13.891Z,0.00
2022-07-25T01:30:12.854Z,0.00
2022-07-25T01:31:14.148Z,0.00
2022-07-25T01:32:13.054Z,0.00
2022-07-25T01:33:14.509Z,0.00
2022-07-25T01:34:13.908Z,0.00
2022-07-25T01:35:13.233Z,0.00
2022-07-25T01:36:13.500Z,0.00
2022-07-25T01:37:13.582Z,0.00
2022-07-25T01:38:13.445Z,0.00
2022-07-25T01:39:13.418Z,0.00
2022-07-25T01:40:13.456Z,0.00
2022-07-25T01:41:13.678Z,0.00
2022-07-25T01:42:14.085Z,0.00
2022-07-25T01:43:12.942Z,0.00
2022-07-25T01:44:13.144Z,0.00
2022-07-25T01:45:13.364Z,0.00
2022-07-25T01:46:13.768Z,0.00
2022-07-25T01:47:14.016Z,0.00
2022-07-25T01:48:12.872Z,0.00
2022-07-25T01:49:13.897Z,0.00
2022-07-25T01:50:13.185Z,0.00
2022-07-25T01:51:16.711Z,0.00
2022-07-25T01:52:14.034Z,0.00
2022-07-25T01:53:13.344Z,0.00
2022-07-25T01:54:13.615Z,0.00
2022-07-25T01:55:13.950Z,0.00
2022-07-25T01:56:12.831Z,0.00
2022-07-25T01:57:13.944Z,0.00
2022-07-25T01:58:13.067Z,0.00
2022-07-25T01:59:12.965Z,0.00
2022-07-25T02:00:12.902Z,0.00
2022-07-25T02:01:12.982Z,0.00
2022-07-25T02:02:13.122Z,0.00
2022-07-25T02:03:12.999Z,0.00
2022-07-25T02:04:14.929Z,0.00
2022-07-25T02:05:13.089Z,0.00
2022-07-25T02:06:14.636Z,0.00
2022-07-25T02:07:13.736Z,0.00
2022-07-25T02:08:13.801Z,0.00
2022-07-25T02:09:12.893Z,0.00
2022-07-25T02:10:13.971Z,0.00
2022-07-25T02:11:13.480Z,0.00
2022-07-25T02:12:13.639Z,0.00
2022-07-25T02:13:13.823Z,0.00
2022-07-25T02:14:13.708Z,0.00
2022-07-25T02:15:13.943Z,0.00
2022-07-25T02:16:12.856Z,0.00
2022-07-25T02:17:15.378Z,0.00
2022-07-25T02:18:13.416Z,0.00
2022-07-25T02:19:13.655Z,0.00
2022-07-25T02:20:15.329Z,0.00
2022-07-25T02:21:14.235Z,0.00
2022-07-25T02:22:13.777Z,0.00
2022-07-25T02:23:13.626Z,0.00
2022-07-25T02:24:13.526Z,0.00
2022-07-25T02:25:13.600Z,0.00
2022-07-25T02:26:13.877Z,0.00
2022-07-25T02:27:13.888Z,0.00
2022-07-25T02:28:13.790Z,0.00
2022-07-25T02:29:13.741Z,0.00
2022-07-25T02:30:13.716Z,0.00
2022-07-25T02:31:13.803Z,0.00
2022-07-25T02:32:12.934Z,0.00
2022-07-25T02:33:12.986Z,0.00
2022-07-25T02:34:13.160Z,0.00
2022-07-25T02:35:13.545Z,0.00
2022-07-25T02:36:13.712Z,0.00
2022-07-25T02:37:13.847Z,0.00
2022-07-25T02:38:13.891Z,0.00
2022-07-25T02:39:16.004Z,0.00
2022-07-25T02:40:12.951Z,0.00
2022-07-25T02:41:12.986Z,0.00
2022-07-25T02:42:12.896Z,0.00
2022-07-25T02:43:12.881Z,0.00
2022-07-25T02:44:12.961Z,0.00
2022-07-25T02:45:12.924Z,0.00
2022-07-25T02:46:14.356Z,0.00
2022-07-25T02:47:13.442Z,0.00
2022-07-25T02:48:13.475Z,0.00
2022-07-25T02:49:13.769Z,0.00
2022-07-25T02:50:14.566Z,0.00
2022-07-25T02:51:13.176Z,0.00
2022-07-25T02:52:13.308Z,0.00
2022-07-25T02:53:13.229Z,0.00
2022-07-25T02:54:13.612Z,0.00
2022-07-25T02:55:14.211Z,0.00
2022-07-25T02:56:14.101Z,0.00
2022-07-25T02:57:13.845Z,0.00
2022-07-25T02:58:13.828Z,0.77
2022-07-25T02:59:14.618Z,0.77
2022-07-25T03:00:13.701Z,0.77
2022-07-25T03:01:14.267Z,0.77
2022-07-25T03:02:13.597Z,0.77
2022-07-25T03:03:13.438Z,1.53
2022-07-25T03:04:13.195Z,1.53
2022-07-25T03:05:13.213Z,1.53
2022-07-25T03:06:13.219Z,2.29
2022-07-25T03:07:13.112Z,2.29
2022-07-25T03:08:18.266Z,3.06
2022-07-25T03:09:13.604Z,3.82
2022-07-25T03:10:13.791Z,3.82
2022-07-25T03:11:13.868Z,4.59
2022-07-25T03:12:13.843Z,5.35
2022-07-25T03:13:13.921Z,6.88
2022-07-25T03:14:12.824Z,7.65
2022-07-25T03:15:13.712Z,9.18
2022-07-25T03:16:13.651Z,9.95
2022-07-25T03:17:15.242Z,11.47
2022-07-25T03:18:13.240Z,12.24
2022-07-25T03:19:13.543Z,15.30
2022-07-25T03:20:13.640Z,16.83
2022-07-25T03:21:13.648Z,19.89
2022-07-25T03:22:13.594Z,22.95
2022-07-25T03:23:13.562Z,24.48
2022-07-25T03:24:13.819Z,27.54
2022-07-25T03:25:15.926Z,33.66
2022-07-25T03:26:13.141Z,36.72
2022-07-25T03:27:13.371Z,42.84
2022-07-25T03:28:13.436Z,48.96
2022-07-25T03:29:13.808Z,55.08
2022-07-25T03:30:13.961Z,61.20
2022-07-25T03:31:13.133Z,67.32
2022-07-25T03:32:13.408Z,79.56
2022-07-25T03:33:13.600Z,85.68
2022-07-25T03:34:13.458Z,97.92
2022-07-25T03:35:13.652Z,110.16
2022-07-25T03:36:13.607Z,122.40
2022-07-25T03:37:13.589Z,134.64
2022-07-25T03:38:13.519Z,146.88
2022-07-25T03:39:13.523Z,159.12
2022-07-25T03:40:13.498Z,171.36
2022-07-25T03:41:13.723Z,195.84
2022-07-25T03:42:13.716Z,195.84
2022-07-25T03:43:14.054Z,220.32
2022-07-25T03:44:13.216Z,244.80
2022-07-25T03:45:13.146Z,269.28
2022-07-25T03:46:14.536Z,293.76
2022-07-25T03:47:20.509Z,318.24
2022-07-25T03:48:13.162Z,342.72
2022-07-25T03:49:13.223Z,367.20
2022-07-25T03:50:13.200Z,391.68
2022-07-25T03:51:13.111Z,391.68
2022-07-25T03:52:13.266Z,440.64
2022-07-25T03:53:13.197Z,440.64
2022-07-25T03:54:13.520Z,489.60
2022-07-25T03:55:13.447Z,538.56
2022-07-25T03:56:13.658Z,538.56
2022-07-25T03:57:13.747Z,587.52
2022-07-25T03:58:13.916Z,636.48
2022-07-25T03:59:13.422Z,685.44
2022-07-25T04:00:13.456Z,685.44
2022-07-25T04:01:13.512Z,734.40
2022-07-25T04:02:14.069Z,783.36
2022-07-25T04:03:13.304Z,783.36
2022-07-25T04:04:13.484Z,881.28
2022-07-25T04:05:13.761Z,881.28
2022-07-25T04:06:13.896Z,881.28
2022-07-25T04:07:12.899Z,881.28
2022-07-25T04:08:13.079Z,979.20
2022-07-25T04:09:13.056Z,979.20
2022-07-25T04:10:13.260Z,1175.04
2022-07-25T04:11:13.735Z,1175.04
2022-07-25T04:12:14.281Z,1272.96
2022-07-25T04:13:13.274Z,1370.88
2022-07-25T04:14:13.195Z,1370.88
2022-07-25T04:15:13.341Z,1468.80
2022-07-25T04:16:16.861Z,1566.72
2022-07-25T04:17:13.797Z,1566.72
2022-07-25T04:18:18.565Z,1762.56
2022-07-25T04:19:13.221Z,1762.56
2022-07-25T04:20:13.598Z,1762.56
2022-07-25T04:21:13.728Z,1958.40
2022-07-25T04:22:13.766Z,1958.40
2022-07-25T04:23:13.812Z,1958.40
2022-07-25T04:24:13.946Z,1958.40
2022-07-25T04:25:13.090Z,2154.24
2022-07-25T04:26:13.346Z,2154.24
2022-07-25T04:27:14.687Z,2350.08
2022-07-25T04:28:13.806Z,2545.92
2022-07-25T04:29:13.721Z,2545.92
2022-07-25T04:30:13.663Z,2937.60
2022-07-25T04:31:13.863Z,3133.44
2022-07-25T04:32:13.043Z,3133.44
2022-07-25T04:33:14.286Z,3525.12
2022-07-25T04:34:14.798Z,3525.12
2022-07-25T04:35:13.760Z,3525.12
2022-07-25T04:36:13.921Z,3916.80
2022-07-25T04:37:14.033Z,3916.80
2022-07-25T04:38:13.320Z,4308.48
2022-07-25T04:39:14.137Z,3916.80
2022-07-25T04:40:13.658Z,3916.80
2022-07-25T04:41:15.189Z,4308.48
2022-07-25T04:42:13.157Z,4308.48
2022-07-25T04:43:18.181Z,4700.16
2022-07-25T04:44:13.646Z,4700.16
2022-07-25T04:45:13.683Z,4700.16
2022-07-25T04:46:14.294Z,4700.16
2022-07-25T04:47:13.430Z,5091.84
2022-07-25T04:48:13.389Z,5091.84
2022-07-25T04:49:13.373Z,5091.84
2022-07-25T04:50:13.654Z,5483.52
2022-07-25T04:51:13.615Z,5483.52
2022-07-25T04:52:15.218Z,5483.52
2022-07-25T04:53:13.309Z,5483.52
2022-07-25T04:54:13.358Z,5091.84
2022-07-25T04:55:13.482Z,4700.16
2022-07-25T04:56:13.482Z,5091.84
2022-07-25T04:57:13.438Z,5091.84
2022-07-25T04:58:13.521Z,5483.52
2022-07-25T04:59:13.691Z,5483.52
2022-07-25T05:00:13.718Z,5483.52
2022-07-25T05:01:13.192Z,5483.52
2022-07-25T05:02:13.650Z,5091.84
2022-07-25T05:03:13.841Z,5483.52
2022-07-25T05:04:13.882Z,5091.84
2022-07-25T05:05:20.783Z,5091.84
2022-07-25T05:06:13.386Z,4700.16
2022-07-25T05:07:13.843Z,5091.84
2022-07-25T05:08:15.392Z,4700.16
2022-07-25T05:09:13.403Z,4700.16
2022-07-25T05:10:14.780Z,4700.16
2022-07-25T05:11:13.848Z,4308.48
2022-07-25T05:12:14.010Z,4308.48
2022-07-25T05:13:13.385Z,4308.48
2022-07-25T05:14:13.793Z,4308.48
2022-07-25T05:15:13.826Z,4700.16
2022-07-25T05:16:15.528Z,4308.48
2022-07-25T05:17:15.238Z,4700.16
2022-07-25T05:18:13.674Z,4700.16
2022-07-25T05:19:13.809Z,5091.84
2022-07-25T05:20:13.936Z,5091.84
2022-07-25T05:21:13.089Z,5483.52
2022-07-25T05:22:14.748Z,5875.20
2022-07-25T05:23:13.651Z,6266.88
2022-07-25T05:24:13.599Z,6266.88
2022-07-25T05:25:13.874Z,6266.88
2022-07-25T05:26:14.765Z,6266.88
2022-07-25T05:27:13.872Z,6266.88
2022-07-25T05:28:15.240Z,6266.88
2022-07-25T05:29:15.045Z,6266.88
2022-07-25T05:30:18.386Z,6266.88
2022-07-25T05:31:13.356Z,5875.20
2022-07-25T05:32:13.356Z,5875.20
2022-07-25T05:33:13.290Z,5483.52
2022-07-25T05:34:13.200Z,6266.88
2022-07-25T05:35:13.470Z,6266.88
2022-07-25T05:36:13.947Z,6266.88
2022-07-25T05:37:19.198Z,6266.88
2022-07-25T05:38:13.373Z,6266.88
2022-07-25T05:39:13.659Z,6266.88
2022-07-25T05:40:13.663Z,7050.24
2022-07-25T05:41:13.620Z,7050.24
2022-07-25T05:42:13.524Z,7050.24
2022-07-25T05:43:13.448Z,7833.60
2022-07-25T05:44:15.001Z,7833.60
2022-07-25T05:45:13.016Z,7833.60
2022-07-25T05:46:15.995Z,7050.24
2022-07-25T05:47:13.113Z,7050.24
2022-07-25T05:48:13.070Z,7833.60
2022-07-25T05:49:14.581Z,7050.24
2022-07-25T05:50:13.577Z,7050.24
2022-07-25T05:51:13.703Z,7833.60
2022-07-25T05:52:20.388Z,7050.24
2022-07-25T05:53:13.290Z,7050.24
2022-07-25T05:54:16.653Z,7050.24
2022-07-25T05:55:13.624Z,7050.24
2022-07-25T05:56:15.666Z,7050.24
2022-07-25T05:57:13.850Z,7050.24
2022-07-25T05:58:13.767Z,7050.24
2022-07-25T05:59:14.331Z,7050.24
2022-07-25T06:00:13.261Z,7050.24
2022-07-25T06:01:13.189Z,7050.24
2022-07-25T06:02:13.753Z,7833.60
2022-07-25T06:03:15.230Z,7833.60
2022-07-25T06:04:13.231Z,7833.60
2022-07-25T06:05:13.340Z,8616.96
2022-07-25T06:06:13.333Z,7833.60
2022-07-25T06:07:17.154Z,8616.96
2022-07-25T06:08:15.039Z,8616.96
2022-07-25T06:09:13.036Z,8616.96
2022-07-25T06:10:14.865Z,7833.60
2022-07-25T06:11:13.785Z,8616.96
2022-07-25T06:12:14.213Z,8616.96
2022-07-25T06:13:14.613Z,9400.32
2022-07-25T06:14:19.483Z,9400.32
2022-07-25T06:15:22.391Z,9400.32
2022-07-25T06:16:13.529Z,9400.32
2022-07-25T06:17:13.717Z,9400.32
2022-07-25T06:18:14.390Z,10183.68
2022-07-25T06:19:13.456Z,10183.68
2022-07-25T06:20:15.430Z,10967.04
2022-07-25T06:21:13.369Z,10183.68
2022-07-25T06:22:14.744Z,10183.68
2022-07-25T06:23:15.261Z,10183.68
2022-07-25T06:24:13.416Z,10183.68
2022-07-25T06:25:15.231Z,10183.68
2022-07-25T06:26:13.828Z,9400.32
2022-07-25T06:27:18.462Z,9400.32
2022-07-25T06:28:13.588Z,9400.32
2022-07-25T06:29:13.368Z,8616.96
2022-07-25T06:30:20.163Z,8616.96
2022-07-25T06:31:14.031Z,8616.96
2022-07-25T06:32:13.165Z,9400.32
2022-07-25T06:33:15.869Z,9400.32
2022-07-25T06:34:13.293Z,8616.96
2022-07-25T06:35:13.290Z,9400.32
2022-07-25T06:36:13.660Z,9400.32
2022-07-25T06:37:14.063Z,8616.96
2022-07-25T06:38:13.468Z,9400.32
2022-07-25T06:39:14.870Z,8616.96
2022-07-25T06:40:14.682Z,8616.96
2022-07-25T06:41:14.064Z,8616.96
2022-07-25T06:42:14.487Z,8616.96
2022-07-25T06:43:16.633Z,9400.32
2022-07-25T06:44:13.845Z,9400.32
2022-07-25T06:45:13.885Z,9400.32
2022-07-25T06:46:13.395Z,9400.32
2022-07-25T06:47:14.755Z,9400.32
2022-07-25T06:48:14.815Z,9400.32
2022-07-25T06:49:13.828Z,9400.32
2022-07-25T06:50:14.599Z,9400.32
2022-07-25T06:51:13.694Z,9400.32
2022-07-25T06:52:14.478Z,8616.96
2022-07-25T06:53:14.894Z,9400.32
2022-07-25T06:54:14.335Z,8616.96
2022-07-25T06:55:13.317Z,9400.32
2022-07-25T06:56:17.621Z,9400.32
2022-07-25T06:57:13.967Z,9400.32
2022-07-25T06:58:13.264Z,10183.68
2022-07-25T06:59:14.482Z,10183.68
2022-07-25T07:00:18.515Z,10967.04
2022-07-25T07:01:15.936Z,10967.04
2022-07-25T07:02:19.904Z,10967.04
2022-07-25T07:03:14.326Z,12533.76
2022-07-25T07:04:15.418Z,11750.40
2022-07-25T07:05:21.704Z,11750.40
2022-07-25T07:06:14.061Z,11750.40
2022-07-25T07:07:18.965Z,12533.76
2022-07-25T07:08:12.964Z,12533.76
2022-07-25T07:09:13.138Z,12533.76
2022-07-25T07:10:13.369Z,12533.76
2022-07-25T07:11:13.586Z,12533.76
2022-07-25T07:12:13.560Z,12533.76
2022-07-25T07:13:23.709Z,12533.76
2022-07-25T07:14:14.369Z,14100.48
2022-07-25T07:15:13.860Z,12533.76
2022-07-25T07:16:15.140Z,12533.76
2022-07-25T07:17:16.138Z,12533.76
2022-07-25T07:18:13.459Z,12533.76
2022-07-25T07:19:15.716Z,12533.76
2022-07-25T07:20:13.878Z,12533.76
2022-07-25T07:21:16.192Z,12533.76
2022-07-25T07:22:17.432Z,12533.76
2022-07-25T07:23:14.933Z,12533.76
2022-07-25T07:24:24.318Z,12533.76
2022-07-25T07:25:13.940Z,12533.76
2022-07-25T07:26:13.688Z,14100.48
2022-07-25T07:27:14.161Z,14100.48
2022-07-25T07:28:15.270Z,14100.48
2022-07-25T07:29:18.790Z,12533.76
2022-07-25T07:30:16.787Z,14100.48
2022-07-25T07:31:17.464Z,14100.48
2022-07-25T07:32:14.993Z,12533.76
2022-07-25T07:33:16.355Z,12533.76
2022-07-25T07:34:16.623Z,12533.76
2022-07-25T07:35:16.055Z,12533.76
2022-07-25T07:36:13.484Z,12533.76
2022-07-25T07:37:14.684Z,12533.76
2022-07-25T07:38:14.856Z,12533.76
2022-07-25T07:39:14.748Z,12533.76
2022-07-25T07:40:20.458Z,12533.76
2022-07-25T07:41:15.210Z,14100.48
2022-07-25T07:42:21.020Z,12533.76
2022-07-25T07:43:14.812Z,14100.48
2022-07-25T07:44:13.919Z,12533.76
2022-07-25T07:45:14.709Z,12533.76
2022-07-25T07:46:17.892Z,14100.48
2022-07-25T07:47:14.656Z,14100.48
2022-07-25T07:48:13.970Z,14100.48
2022-07-25T07:49:13.309Z,14100.48
2022-07-25T07:50:16.238Z,14100.48
2022-07-25T07:51:13.241Z,14100.48
2022-07-25T07:52:13.303Z,12533.76
2022-07-25T07:53:14.840Z,14100.48
2022-07-25T07:54:14.414Z,14100.48
2022-07-25T07:55:15.311Z,14100.48
2022-07-25T07:56:17.567Z,15667.20
2022-07-25T07:57:15.050Z,14100.48
2022-07-25T07:58:20.101Z,15667.20
2022-07-25T07:59:13.120Z,15667.20
2022-07-25T08:00:16.526Z,15667.20
2022-07-25T08:01:21.063Z,15667.20
2022-07-25T08:02:18.529Z,14100.48
2022-07-25T08:03:13.978Z,14100.48
2022-07-25T08:04:14.785Z,14100.48
2022-07-25T08:05:15.369Z,14100.48
2022-07-25T08:06:14.944Z,14100.48
2022-07-25T08:07:12.962Z,14100.48
2022-07-25T08:08:14.790Z,15667.20
2022-07-25T08:09:13.813Z,15667.20
2022-07-25T08:10:16.754Z,15667.20
2022-07-25T08:11:15.543Z,15667.20
2022-07-25T08:12:14.178Z,15667.20
2022-07-25T08:13:15.091Z,17233.92
2022-07-25T08:14:13.436Z,17233.92
2022-07-25T08:15:17.295Z,17233.92
2022-07-25T08:16:13.402Z,18800.64
2022-07-25T08:17:16.149Z,18800.64
2022-07-25T08:18:17.112Z,20367.36
2022-07-25T08:19:14.819Z,20367.36
2022-07-25T08:20:36.469Z,20367.36
2022-07-25T08:21:13.877Z,20367.36
2022-07-25T08:22:15.566Z,20367.36
2022-07-25T08:23:15.086Z,20367.36
2022-07-25T08:24:13.247Z,20367.36
2022-07-25T08:25:13.155Z,20367.36
2022-07-25T08:26:16.531Z,18800.64
2022-07-25T08:27:16.511Z,18800.64
2022-07-25T08:28:15.018Z,18800.64
2022-07-25T08:29:19.682Z,18800.64
2022-07-25T08:30:13.452Z,20367.36
2022-07-25T08:31:17.349Z,20367.36
2022-07-25T08:32:13.569Z,20367.36
2022-07-25T08:33:14.137Z,20367.36
2022-07-25T08:34:14.720Z,20367.36
2022-07-25T08:35:15.077Z,20367.36
2022-07-25T08:36:13.159Z,20367.36
2022-07-25T08:37:16.374Z,20367.36
2022-07-25T08:38:15.058Z,20367.36
2022-07-25T08:39:16.015Z,18800.64
2022-07-25T08:40:14.878Z,18800.64
2022-07-25T08:41:14.769Z,17233.92
2022-07-25T08:42:17.402Z,17233.92
2022-07-25T08:43:21.116Z,17233.92
2022-07-25T08:44:14.833Z,18800.64
2022-07-25T08:45:13.711Z,18800.64
2022-07-25T08:46:14.583Z,18800.64
2022-07-25T08:47:15.969Z,18800.64
2022-07-25T08:48:15.891Z,18800.64
2022-07-25T08:49:13.127Z,18800.64
2022-07-25T08:50:15.033Z,18800.64
2022-07-25T08:51:14.073Z,18800.64
2022-07-25T08:52:15.004Z,18800.64
2022-07-25T08:53:32.762Z,18800.64
2022-07-25T08:54:15.019Z,17233.92
2022-07-25T08:55:14.522Z,17233.92
2022-07-25T08:56:18.846Z,17233.92
2022-07-25T08:57:14.560Z,17233.92
2022-07-25T08:58:13.702Z,18800.64
2022-07-25T08:59:14.977Z,18800.64
2022-07-25T09:00:14.311Z,18800.64
2022-07-25T09:01:15.308Z,18800.64
2022-07-25T09:02:15.152Z,20367.36
2022-07-25T09:03:15.095Z,20367.36
2022-07-25T09:04:13.458Z,20367.36
2022-07-25T09:05:15.910Z,20367.36
2022-07-25T09:06:13.045Z,21934.08
2022-07-25T09:07:14.680Z,21934.08
2022-07-25T09:08:16.296Z,21934.08
2022-07-25T09:09:15.080Z,21934.08
2022-07-25T09:10:13.250Z,21934.08
2022-07-25T09:11:14.898Z,21934.08
2022-07-25T09:12:12.911Z,21934.08
2022-07-25T09:13:13.121Z,21934.08
2022-07-25T09:14:15.146Z,18800.64
2022-07-25T09:15:15.927Z,20367.36
2022-07-25T09:16:13.020Z,20367.36
2022-07-25T09:17:22.615Z,18800.64
2022-07-25T09:18:13.684Z,20367.36
2022-07-25T09:19:15.358Z,25067.52
2022-07-25T09:20:18.603Z,28200.96
2022-07-25T09:21:17.230Z,25067.52
2022-07-25T09:22:13.251Z,25067.52
2022-07-25T09:23:18.890Z,20367.36
2022-07-25T09:24:17.454Z,18800.64
2022-07-25T09:25:16.756Z,20367.36
2022-07-25T09:26:13.451Z,17233.92
2022-07-25T09:27:13.552Z,25067.52
2022-07-25T09:28:13.865Z,28200.96
2022-07-25T09:29:16.257Z,47001.60
2022-07-25T09:30:15.078Z,50135.04
2022-07-25T09:31:14.858Z,47001.60
2022-07-25T09:32:17.285Z,50135.04
2022-07-25T09:33:15.127Z,34467.84
2022-07-25T09:34:14.899Z,23500.80
2022-07-25T09:35:12.872Z,28200.96
2022-07-25T09:36:15.622Z,43868.16
2022-07-25T09:37:14.899Z,43868.16
2022-07-25T09:38:16.109Z,50135.04
2022-07-25T09:39:16.282Z,50135.04
2022-07-25T09:40:13.383Z,34467.84
2022-07-25T09:41:13.321Z,40734.72
2022-07-25T09:42:13.873Z,50135.04
2022-07-25T09:43:17.851Z,50135.04
2022-07-25T09:44:17.703Z,50135.04
2022-07-25T09:45:20.155Z,50135.04
2022-07-25T09:46:14.811Z,56401.92
2022-07-25T09:47:14.385Z,37601.28
2022-07-25T09:48:19.793Z,50135.04
2022-07-25T09:49:13.828Z,28200.96
2022-07-25T09:50:13.071Z,56401.92
2022-07-25T09:51:15.473Z,56401.92
2022-07-25T09:52:16.687Z,31334.40
2022-07-25T09:53:23.415Z,50135.04
2022-07-25T09:54:15.118Z,43868.16
2022-07-25T09:55:13.727Z,50135.04
2022-07-25T09:56:16.970Z,50135.04
2022-07-25T09:57:13.123Z,56401.92
2022-07-25T09:58:14.904Z,25067.52
2022-07-25T09:59:15.296Z,56401.92
2022-07-25T10:00:19.020Z,28200.96
2022-07-25T10:01:13.940Z,31334.40
2022-07-25T10:02:13.418Z,56401.92
2022-07-25T10:03:15.317Z,43868.16
2022-07-25T10:04:16.518Z,28200.96
2022-07-25T10:05:15.787Z,18800.64
2022-07-25T10:06:15.409Z,15667.20
2022-07-25T10:07:14.348Z,15667.20
2022-07-25T10:08:18.576Z,17233.92
2022-07-25T10:09:24.774Z,18800.64
2022-07-25T10:10:20.721Z,21934.08
2022-07-25T10:11:17.006Z,31334.40
2022-07-25T10:12:18.142Z,28200.96
2022-07-25T10:13:17.238Z,50135.04
2022-07-25T10:14:18.253Z,40734.72
2022-07-25T10:15:20.342Z,40734.72
2022-07-25T10:16:18.899Z,40734.72
2022-07-25T10:17:17.867Z,21934.08
2022-07-25T10:18:17.420Z,23500.80
2022-07-25T10:19:17.566Z,28200.96
2022-07-25T10:20:18.980Z,28200.96
2022-07-25T10:21:26.895Z,28200.96
2022-07-25T10:22:34.307Z,25067.52
2022-07-25T10:23:24.191Z,25067.52
2022-07-25T10:24:19.210Z,28200.96
2022-07-25T10:25:19.023Z,31334.40
2022-07-25T10:26:18.881Z,31334.40
2022-07-25T10:27:18.157Z,31334.40
2022-07-25T10:28:18.163Z,25067.52
2022-07-25T10:29:19.581Z,25067.52
2022-07-25T10:30:17.950Z,31334.40
2022-07-25T10:31:20.335Z,23500.80
2022-07-25T10:32:17.530Z,20367.36
2022-07-25T10:33:19.348Z,15667.20
2022-07-25T10:34:20.237Z,14100.48
2022-07-25T10:35:18.533Z,12533.76
2022-07-25T10:36:19.678Z,11750.40
2022-07-25T10:37:19.280Z,10183.68
2022-07-25T10:38:17.757Z,8616.96
2022-07-25T10:39:18.508Z,7833.60
2022-07-25T10:40:18.201Z,7833.60
2022-07-25T10:41:16.814Z,7050.24
2022-07-25T10:42:19.149Z,7050.24
2022-07-25T10:43:19.175Z,7050.24
2022-07-25T10:44:17.560Z,7833.60
2022-07-25T10:45:18.440Z,8616.96
2022-07-25T10:46:18.321Z,8616.96
2022-07-25T10:47:19.195Z,9400.32
2022-07-25T10:48:18.378Z,10183.68
2022-07-25T10:49:16.174Z,10967.04
2022-07-25T10:50:29.756Z,11750.40
2022-07-25T10:51:20.885Z,12533.76
2022-07-25T10:52:12.953Z,14100.48
2022-07-25T10:53:14.401Z,17233.92
2022-07-25T10:54:15.117Z,17233.92
2022-07-25T10:55:16.053Z,18800.64
2022-07-25T10:56:14.743Z,18800.64
2022-07-25T10:57:14.175Z,17233.92
2022-07-25T10:58:23.438Z,17233.92
2022-07-25T10:59:15.427Z,17233.92
2022-07-25T11:00:19.998Z,17233.92
2022-07-25T11:01:16.297Z,17233.92
2022-07-25T11:02:19.760Z,15667.20
2022-07-25T11:03:18.355Z,15667.20
2022-07-25T11:04:15.129Z,15667.20
2022-07-25T11:05:13.215Z,18800.64
2022-07-25T11:06:13.685Z,23500.80
2022-07-25T11:07:14.801Z,25067.52
2022-07-25T11:08:22.181Z,25067.52
2022-07-25T11:09:18.497Z,25067.52
2022-07-25T11:10:14.497Z,25067.52
2022-07-25T11:11:17.099Z,25067.52
2022-07-25T11:12:18.304Z,37601.28
2022-07-25T11:13:15.022Z,25067.52
2022-07-25T11:14:12.993Z,40734.72
2022-07-25T11:15:17.104Z,62668.80
2022-07-25T11:16:24.277Z,62668.80
2022-07-25T11:17:16.563Z,56401.92
2022-07-25T11:18:15.991Z,56401.92
2022-07-25T11:19:14.640Z,56401.92
2022-07-25T11:20:16.826Z,56401.92
2022-07-25T11:21:13.826Z,56401.92
2022-07-25T11:22:22.679Z,56401.92
2022-07-25T11:23:17.107Z,56401.92
2022-07-25T11:24:14.725Z,56401.92
2022-07-25T11:25:15.158Z,56401.92
2022-07-25T11:26:15.446Z,56401.92
2022-07-25T11:27:16.152Z,56401.92
2022-07-25T11:28:13.037Z,56401.92
2022-07-25T11:29:17.601Z,56401.92
2022-07-25T11:30:17.826Z,56401.92
2022-07-25T11:31:20.097Z,56401.92
2022-07-25T11:32:15.322Z,56401.92
2022-07-25T11:33:17.514Z,56401.92
2022-07-25T11:34:23.719Z,56401.92
2022-07-25T11:35:18.581Z,56401.92
2022-07-25T11:36:16.563Z,56401.92
2022-07-25T11:37:19.396Z,56401.92
2022-07-25T11:38:17.330Z,56401.92
2022-07-25T11:39:18.889Z,56401.92
2022-07-25T11:40:19.522Z,56401.92
2022-07-25T11:41:17.816Z,56401.92
2022-07-25T11:42:17.380Z,50135.04
2022-07-25T11:43:20.057Z,43868.16
2022-07-25T11:44:16.386Z,20367.36
2022-07-25T11:45:25.088Z,17233.92
2022-07-25T11:46:16.826Z,62668.80
2022-07-25T11:47:16.925Z,62668.80
2022-07-25T11:48:18.990Z,62668.80
2022-07-25T11:49:18.421Z,56401.92
2022-07-25T11:50:16.225Z,56401.92
2022-07-25T11:51:19.789Z,56401.92
2022-07-25T11:52:20.135Z,56401.92
2022-07-25T11:53:23.478Z,56401.92
2022-07-25T11:54:20.666Z,56401.92
2022-07-25T11:55:18.358Z,50135.04
2022-07-25T11:56:41.415Z,56401.92
2022-07-25T11:57:18.957Z,18800.64
2022-07-25T11:58:19.054Z,18800.64
2022-07-25T11:59:21.416Z,20367.36
2022-07-25T12:00:18.114Z,34467.84
2022-07-25T12:01:18.744Z,25067.52
2022-07-25T12:02:18.806Z,28200.96
2022-07-25T12:03:19.940Z,31334.40
2022-07-25T12:04:20.431Z,28200.96
2022-07-25T12:05:17.538Z,25067.52
2022-07-25T12:06:24.116Z,21934.08
2022-07-25T12:07:18.614Z,23500.80
2022-07-25T12:08:18.502Z,37601.28
2022-07-25T12:09:19.298Z,43868.16
2022-07-25T12:10:18.284Z,68935.68
2022-07-25T12:11:18.313Z,28200.96
2022-07-25T12:12:18.889Z,47001.60
2022-07-25T12:13:17.828Z,50135.04
2022-07-25T12:14:19.436Z,31334.40
2022-07-25T12:15:19.591Z,28200.96
2022-07-25T12:16:18.287Z,28200.96